Flight Track Log - Related Links

Times and Time Zones

All times are in EDT time to prevent confusion due to time zone crossing. See the SQH87 flight status page for this flight to view local times or setup timezone preferences in your user account.

Time Position Orientation Groundspeed Altitude Reporting Facility
EDT Latitude Longitude Course Direction KTS MPH feet Rate Location/Type
Fri 11:27:02 AM 35.0667 -89.9833 219° Southwest 100 115 900  Level KMEM
Fri 11:27:23 AM 35.0500 -90.0000 219° Southwest 122 140 1,600 1,756 Climbing KMEM
Fri 11:28:24 AM 35.0500 -90.0500 270° West 131 151 3,300 1,700 Climbing KMEM
Fri 11:29:23 AM 35.0500 -90.1000 270° West 143 165 5,000 1,613 Climbing KMEM
Fri 11:30:23 AM 35.0333 -90.1333 239° Southwest 138 159 6,500 1,500 Climbing KMEM
Fri 11:31:23 AM 35.0167 -90.1833 248° West 131 151 8,000 1,588 Climbing KMEM
Fri 11:32:05 AM 35.0156 -90.2203 268° West 133 153 9,200 1,588 Climbing Memphis Center
Fri 11:33:05 AM 35.0094 -90.2633 260° West 144 166 10,700 1,500 Climbing Memphis Center
Fri 11:34:05 AM 35.0011 -90.3064 257° West 139 160 12,200 1,400 Climbing Memphis Center
Fri 11:35:05 AM 34.9928 -90.3444 255° West 139 160 13,500 900 Climbing Memphis Center
Fri 11:36:05 AM 34.9864 -90.3925 261° West 139 160 14,000 250 Climbing Memphis Center
Fri 11:37:05 AM 34.9781 -90.4508 260° West 162 186 14,000  Level Memphis Center
Fri 11:38:05 AM 34.9697 -90.5117 261° West 184 212 14,000  Level Memphis Center
Fri 11:39:05 AM 34.9592 -90.5750 259° West 184 212 14,000  Level Memphis Center
Fri 11:40:05 AM 34.9467 -90.6358 256° West 184 212 14,000  Level Memphis Center
Fri 11:41:05 AM 34.9339 -90.7017 257° West 189 217 14,000  Level Memphis Center
Fri 11:42:05 AM 34.9003 -90.7597 235° Southwest 189 217 14,000  Level Memphis Center
Fri 11:43:05 AM 34.8606 -90.8075 225° Southwest 202 232 14,000  Level Memphis Center
Fri 11:44:05 AM 34.8186 -90.8581 225° Southwest 207 238 14,000  Level Memphis Center
Fri 11:45:05 AM 34.7808 -90.9058 226° Southwest 207 238 14,000  Level Memphis Center
Fri 11:46:05 AM 34.7472 -90.9486 226° Southwest 192 221 14,000  Level Memphis Center
Fri 11:47:05 AM 34.7117 -90.9911 225° Southwest 185 213 14,000  Level Memphis Center
Fri 11:48:05 AM 34.6781 -91.0389 229° Southwest 185 213 14,000 50 Level Memphis Center
Fri 11:49:05 AM 34.6403 -91.0817 223° Southwest 191 220 14,100 50 Climbing Memphis Center
Fri 11:50:05 AM 34.6022 -91.1292 226° Southwest 196 226 14,100  Level Memphis Center
Fri 11:51:05 AM 34.5644 -91.1767 226° Southwest 201 231 14,100  Level Memphis Center
Fri 11:52:05 AM 34.5308 -91.2167 224° Southwest 196 226 14,100  Level Memphis Center
Fri 11:53:05 AM 34.4992 -91.2594 228° Southwest 182 209 14,100 350 Level Memphis Center
Fri 11:54:05 AM 34.4633 -91.2992 222° Southwest 174 200 14,800  Climbing Memphis Center
Fri 11:55:05 AM 34.4319 -91.3392 226° Southwest 169 194 14,100 -500 Descending Memphis Center
Fri 11:56:05 AM 34.4022 -91.3842 231° Southwest 169 194 13,800 -650 Descending Memphis Center
Fri 11:57:05 AM 34.3686 -91.4189 220° Southwest 169 194 12,800 -900 Descending Memphis Center
Fri 11:58:05 AM 34.3306 -91.4664 226° Southwest 181 208 12,000 -350 Descending Memphis Center
Fri 11:59:05 AM 34.2842 -91.5211 224° Southwest 196 226 12,100 50 Climbing Memphis Center
Fri 12:00:05 PM 34.2419 -91.5758 227° Southwest 218 251 12,100  Level Memphis Center
Fri 12:01:05 PM 34.1975 -91.6278 224° Southwest 226 260 12,100  Level Memphis Center
Fri 12:02:05 PM 34.1533 -91.6825 226° Southwest 226 260 12,100 -50 Level Memphis Center
Fri 12:03:05 PM 34.1131 -91.7369 228° Southwest 226 260 12,000 -50 Descending Memphis Center
Fri 12:04:05 PM 34.0644 -91.7814 217° Southwest 232 267 12,000  Level Memphis Center
Fri 12:05:05 PM 34.0325 -91.8436 238° Southwest 232 267 12,000  Level Memphis Center
Fri 12:06:05 PM 33.9858 -91.8953 223° Southwest 232 267 12,000  Level Memphis Center
Fri 12:07:05 PM 33.9456 -91.9497 228° Southwest 232 267 12,000  Level Memphis Center
Fri 12:08:05 PM 33.9011 -92.0039 225° Southwest 232 267 12,000  Level Memphis Center
Fri 12:09:05 PM 33.8586 -92.0556 225° Southwest 226 260 12,000  Level Memphis Center
Fri 12:10:05 PM 33.8119 -92.1072 223° Southwest 226 260 12,000  Level Memphis Center
Fri 12:11:05 PM 33.7717 -92.1589 227° Southwest 220 253 12,000 -200 Level Memphis Center
Fri 12:12:05 PM 33.7250 -92.2103 222° Southwest 220 253 11,600 -650 Descending Memphis Center
Fri 12:13:05 PM 33.6822 -92.2669 228° Southwest 226 260 10,700 -962 Descending Memphis Center
Fri 12:13:51 PM 33.6422 -92.3164 226° Southwest 232 267 9,900 -982 Descending Fort Worth Center
Fri 12:15:00 PM 33.5921 -92.3592 215° Southwest  Level FlightAware Approximate
Fri 12:16:51 PM 33.5006 -92.4839 231° Southwest 237 273 7,000  Level Fort Worth Center
Fri 12:17:51 PM 33.4589 -92.5336 225° Southwest 237 273 6,000 -1,000 Descending Fort Worth Center
Fri 12:19:00 PM 33.4065 -92.5768 220° Southwest  Level FlightAware Approximate
Fri 12:22:00 PM 33.3250 -92.6709 231° Southwest  Level FlightAware Approximate

Login

Don't have an account? Register now (free) for customized features, flight alerts, and more!